Time;durP1;ratioP1;P1;durP2;ratioP2;P2;SDS_P1;SDS_P2;PMS_P1;PMS_P2;Temp;Humidity;BMP_temperature;BMP_pressure;BME280_temperature;BME280_humidity;BME280_pressure;Samples;Min_cycle;Max_cycle;Signal;HPM_P1;HPM_P2
2023/01/27 00:00:55;;;;;;;9.52;7.55;;;5.60;99.90;;;;;;4996743;28;93343;-73
2023/01/27 00:03:23;;;;;;;14.18;8.88;;;5.60;99.90;;;;;;4996759;28;93093;-73
2023/01/27 00:05:50;;;;;;;14.55;9.07;;;5.60;99.90;;;;;;4978657;28;92561;-73
2023/01/27 00:08:17;;;;;;;9.43;6.00;;;5.60;99.90;;;;;;4996406;28;92523;-73
2023/01/27 00:10:44;;;;;;;13.02;9.10;;;5.60;99.90;;;;;;4995048;28;95659;-73
2023/01/27 00:13:30;;;;;;;10.73;7.20;;;5.50;99.90;;;;;;4962150;28;95379;-73
2023/01/27 00:15:58;;;;;;;14.00;9.77;;;5.50;99.90;;;;;;4978842;28;92912;-73
2023/01/27 00:18:25;;;;;;;14.25;8.68;;;5.50;99.90;;;;;;4978747;28;92479;-74
2023/01/27 00:26:22;;;;;;;10.75;7.40;;;5.60;99.90;;;;;;4964370;28;92602;-73
2023/01/27 00:28:49;;;;;;;14.15;10.20;;;5.60;99.90;;;;;;4962435;28;91758;-74
2023/01/27 00:34:10;;;;;;;13.52;8.07;;;5.60;99.90;;;;;;4981271;28;93089;-73
2023/01/27 00:36:40;;;;;;;12.32;7.63;;;5.60;99.90;;;;;;4977630;28;94829;-74
2023/01/27 00:39:09;;;;;;;9.73;6.57;;;5.60;99.90;;;;;;4977872;28;92511;-73
2023/01/27 00:41:37;;;;;;;9.90;6.82;;;5.60;99.90;;;;;;4995916;28;93035;-73
2023/01/27 00:44:05;;;;;;;10.13;7.13;;;5.60;99.90;;;;;;4995667;28;93319;-73
2023/01/27 00:46:33;;;;;;;7.40;5.07;;;5.60;99.90;;;;;;4996246;28;92870;-74
2023/01/27 00:49:00;;;;;;;7.10;5.68;;;5.60;99.90;;;;;;4978511;28;92522;-73
2023/01/27 00:51:29;;;;;;;6.47;5.75;;;5.50;99.90;;;;;;4994158;28;94294;-73
2023/01/27 00:53:58;;;;;;;7.15;5.38;;;5.50;99.90;;;;;;4978071;28;95703;-73
2023/01/27 00:56:25;;;;;;;4.57;4.15;;;5.50;99.90;;;;;;4961886;28;92487;-73
2023/01/27 00:58:54;;;;;;;8.05;5.68;;;5.50;99.90;;;;;;4978390;28;92523;-73
2023/01/27 01:01:21;;;;;;;7.38;5.28;;;5.50;99.90;;;;;;4976168;28;98807;-73
2023/01/27 01:03:48;;;;;;;7.90;5.38;;;5.60;99.90;;;;;;4945295;28;97851;-73
2023/01/27 01:06:17;;;;;;;6.28;4.68;;;5.60;99.90;;;;;;4978132;28;93068;-74
2023/01/27 01:08:44;;;;;;;6.60;5.35;;;5.60;99.90;;;;;;4978006;28;92493;-74
2023/01/27 01:11:16;;;;;;;6.28;4.93;;;5.60;99.90;;;;;;4977935;28;93237;-74
2023/01/27 01:13:44;;;;;;;6.85;4.45;;;5.60;99.90;;;;;;4994132;28;95533;-73
2023/01/27 01:16:18;;;;;;;5.85;4.93;;;5.60;99.90;;;;;;4961289;28;93122;-73
2023/01/27 01:18:45;;;;;;;4.57;4.18;;;5.60;99.90;;;;;;4978163;28;91744;-73
2023/01/27 01:21:12;;;;;;;7.32;5.13;;;5.60;99.90;;;;;;4957487;28;95977;-73
2023/01/27 01:23:41;;;;;;;8.43;5.18;;;5.60;99.90;;;;;;4974255;28;95480;-73
2023/01/27 01:26:10;;;;;;;6.43;4.82;;;5.60;99.90;;;;;;4972914;28;94899;-73
2023/01/27 01:28:38;;;;;;;5.28;4.78;;;5.60;99.90;;;;;;4975582;28;92570;-73
2023/01/27 01:31:12;;;;;;;7.63;5.53;;;5.60;99.90;;;;;;4978889;28;93207;-72
2023/01/27 01:33:39;;;;;;;9.73;6.13;;;5.60;99.90;;;;;;4979160;28;92983;-73
2023/01/27 01:36:09;;;;;;;6.78;5.88;;;5.60;99.90;;;;;;4961834;28;92435;-73
2023/01/27 01:38:36;;;;;;;5.97;5.30;;;5.60;99.90;;;;;;4977687;28;92489;-72
2023/01/27 01:41:05;;;;;;;6.57;5.18;;;5.60;99.90;;;;;;4961681;28;95959;-73
2023/01/27 01:43:33;;;;;;;7.25;5.68;;;5.60;99.90;;;;;;4978985;28;92743;-73
2023/01/27 01:46:01;;;;;;;9.05;6.00;;;5.60;99.90;;;;;;4979088;28;92641;-73
2023/01/27 01:48:33;;;;;;;6.75;4.40;;;5.60;99.90;;;;;;4977431;28;92574;-73
2023/01/27 01:51:09;;;;;;;7.80;5.28;;;5.50;99.90;;;;;;4976200;28;98104;-73
2023/01/27 01:53:42;;;;;;;6.68;5.28;;;5.60;99.90;;;;;;4977196;28;97714;-73
2023/01/27 01:56:25;;;;;;;5.47;4.57;;;5.60;99.90;;;;;;4977490;28;92999;-73
2023/01/27 01:58:56;;;;;;;6.30;4.38;;;5.60;99.90;;;;;;4977480;28;92492;-73
2023/01/27 02:01:23;;;;;;;7.93;4.65;;;5.50;99.90;;;;;;4976965;28;96345;-73
2023/01/27 02:03:55;;;;;;;5.72;4.40;;;5.50;99.90;;;;;;4977100;28;95568;-73
2023/01/27 02:06:22;;;;;;;3.63;3.08;;;5.50;99.90;;;;;;4977083;28;92480;-73
2023/01/27 02:08:50;;;;;;;4.43;3.50;;;5.50;99.90;;;;;;4978915;28;91731;-73
2023/01/27 02:11:17;;;;;;;4.97;3.20;;;5.50;99.90;;;;;;4976874;28;95804;-73
2023/01/27 02:13:45;;;;;;;5.30;2.92;;;5.60;99.90;;;;;;4976959;28;95995;-73
2023/01/27 02:16:12;;;;;;;3.30;3.00;;;5.50;99.90;;;;;;4976226;28;94952;-73
2023/01/27 02:18:40;;;;;;;3.35;3.03;;;5.50;99.90;;;;;;4978591;28;92521;-74
2023/01/27 02:21:08;;;;;;;3.95;3.00;;;5.50;99.90;;;;;;4976108;28;101442;-74
2023/01/27 02:23:52;;;;;;;3.15;2.60;;;5.60;99.90;;;;;;4978047;28;93027;-73
2023/01/27 02:26:36;;;;;;;3.17;2.72;;;5.60;99.90;;;;;;4978475;28;92877;-74
2023/01/27 02:29:10;;;;;;;3.65;2.17;;;5.60;99.90;;;;;;4977008;28;92425;-73
2023/01/27 02:31:38;;;;;;;2.10;1.90;;;5.60;99.90;;;;;;4976489;28;95915;-73
2023/01/27 02:34:09;;;;;;;4.18;1.90;;;5.50;99.90;;;;;;4976826;28;95275;-73
2023/01/27 02:36:54;;;;;;;1.88;1.73;;;5.50;99.90;;;;;;4978267;28;92514;-74
2023/01/27 02:39:26;;;;;;;2.38;2.00;;;5.50;99.90;;;;;;4976609;28;92490;-73
2023/01/27 02:41:56;;;;;;;3.13;2.05;;;5.50;99.90;;;;;;4976785;28;95974;-73
2023/01/27 02:44:25;;;;;;;2.30;2.10;;;5.50;99.90;;;;;;4960290;28;97951;-74
2023/01/27 02:46:52;;;;;;;2.25;1.83;;;5.60;99.90;;;;;;4977117;28;92797;-73
2023/01/27 02:49:19;;;;;;;2.35;1.90;;;5.60;99.90;;;;;;4960156;28;92511;-73
2023/01/27 02:51:46;;;;;;;1.55;1.45;;;5.60;99.90;;;;;;4976462;28;95971;-73
2023/01/27 02:54:13;;;;;;;2.30;2.10;;;5.60;99.90;;;;;;4976300;28;95681;-73
2023/01/27 02:56:40;;;;;;;2.63;1.58;;;5.70;99.90;;;;;;4976170;28;92551;-74
2023/01/27 02:59:10;;;;;;;1.75;1.65;;;5.70;99.90;;;;;;4945205;28;91845;-74
2023/01/27 03:01:40;;;;;;;2.25;1.70;;;5.70;99.90;;;;;;4960534;28;95608;-73
2023/01/27 03:04:10;;;;;;;1.60;1.50;;;5.60;99.90;;;;;;4960433;28;93053;-73
2023/01/27 03:06:37;;;;;;;3.75;2.08;;;5.60;99.90;;;;;;4975123;28;94788;-73
2023/01/27 03:09:04;;;;;;;2.10;1.92;;;5.60;99.90;;;;;;4976295;28;92650;-73
2023/01/27 03:14:17;;;;;;;3.15;2.10;;;5.60;99.90;;;;;;4976041;28;96123;-73
2023/01/27 03:19:32;;;;;;;3.33;2.00;;;5.60;99.90;;;;;;4975276;28;92524;-73
2023/01/27 03:22:00;;;;;;;3.88;2.13;;;5.60;99.90;;;;;;4959669;28;95174;-73
2023/01/27 03:24:29;;;;;;;4.50;1.85;;;5.60;99.90;;;;;;4976141;28;94965;-73
2023/01/27 03:26:59;;;;;;;3.22;1.83;;;5.60;99.90;;;;;;4976169;28;92469;-73
2023/01/27 03:29:56;;;;;;;3.75;1.95;;;5.60;99.90;;;;;;4975867;28;93132;-73
2023/01/27 03:32:28;;;;;;;2.28;2.10;;;5.60;99.90;;;;;;4945953;28;97818;-74
2023/01/27 03:35:16;;;;;;;3.97;2.72;;;5.60;99.90;;;;;;4977009;28;96124;-73
2023/01/27 03:46:17;;;;;;;2.65;2.42;;;5.60;99.90;;;;;;4975576;28;95136;-73
2023/01/27 03:48:53;;;;;;;2.30;2.20;;;5.60;99.90;;;;;;4977193;28;92909;-73
2023/01/27 03:51:23;;;;;;;3.13;2.03;;;5.60;99.90;;;;;;4977020;28;92068;-73
2023/01/27 03:53:50;;;;;;;2.33;2.13;;;5.60;99.90;;;;;;4976395;28;93330;-73
2023/01/27 03:56:19;;;;;;;5.30;2.03;;;5.60;99.90;;;;;;4976819;28;93052;-72
2023/01/27 03:58:48;;;;;;;5.75;2.35;;;5.60;99.90;;;;;;4975465;28;94921;-73
2023/01/27 04:01:19;;;;;;;1.70;1.60;;;5.50;99.90;;;;;;4975197;28;92526;-73
2023/01/27 04:09:29;;;;;;;2.83;1.38;;;5.50;99.90;;;;;;4977123;28;92979;-73
2023/01/27 04:11:58;;;;;;;1.77;1.48;;;5.50;99.90;;;;;;4977045;28;92430;-73
2023/01/27 04:14:40;;;;;;;2.35;1.73;;;5.50;99.90;;;;;;4975077;28;95851;-74
2023/01/27 04:17:13;;;;;;;2.28;1.73;;;5.50;99.90;;;;;;4977146;28;91987;-74
2023/01/27 04:19:40;;;;;;;2.30;1.60;;;5.50;99.90;;;;;;4974607;28;92937;-74
2023/01/27 04:22:10;;;;;;;1.58;1.48;;;5.50;99.90;;;;;;4958956;28;92533;-73
2023/01/27 04:24:37;;;;;;;1.77;1.50;;;5.50;99.90;;;;;;4973404;28;98599;-73
2023/01/27 04:27:10;;;;;;;1.30;1.20;;;5.60;99.90;;;;;;4976289;28;95601;-71
2023/01/27 04:29:40;;;;;;;1.80;1.48;;;5.50;99.90;;;;;;4976646;28;93142;-72
2023/01/27 04:32:09;;;;;;;3.05;1.90;;;5.50;99.90;;;;;;4975289;28;92866;-72
2023/01/27 04:34:37;;;;;;;2.05;1.58;;;5.50;99.90;;;;;;4975683;28;93335;-72
2023/01/27 04:37:05;;;;;;;2.28;1.60;;;5.50;99.90;;;;;;4975115;28;92992;-72
2023/01/27 04:39:33;;;;;;;2.55;1.95;;;5.50;99.90;;;;;;4959023;28;92530;-73
2023/01/27 04:42:00;;;;;;;2.45;1.80;;;5.60;99.90;;;;;;4976682;28;91761;-73
2023/01/27 04:44:28;;;;;;;3.47;1.73;;;5.50;99.90;;;;;;4976178;28;93171;-73
2023/01/27 04:46:55;;;;;;;2.35;1.95;;;5.50;99.90;;;;;;4975839;28;93197;-73
2023/01/27 04:49:25;;;;;;;3.53;2.00;;;5.50;99.90;;;;;;4973591;28;94990;-73
2023/01/27 04:51:52;;;;;;;1.63;1.45;;;5.50;99.90;;;;;;4975807;28;92423;-72
2023/01/27 04:54:19;;;;;;;3.42;1.73;;;5.50;99.90;;;;;;4974347;28;96128;-72
2023/01/27 04:56:58;;;;;;;2.40;1.80;;;5.60;99.90;;;;;;4974720;28;93011;-73
2023/01/27 04:59:25;;;;;;;2.67;1.73;;;5.50;99.90;;;;;;4958663;28;92475;-73
2023/01/27 05:01:52;;;;;;;3.10;1.45;;;5.50;99.90;;;;;;4991096;28;93176;-72
2023/01/27 05:04:20;;;;;;;2.47;1.50;;;5.50;99.90;;;;;;4957484;28;93376;-73
2023/01/27 05:06:47;;;;;;;1.77;1.67;;;5.50;99.90;;;;;;4958459;28;92900;-73
2023/01/27 05:09:14;;;;;;;1.95;1.75;;;5.50;99.90;;;;;;4975942;28;92507;-73
2023/01/27 05:11:41;;;;;;;4.15;1.73;;;5.50;99.90;;;;;;4975749;28;92518;-73
2023/01/27 05:14:08;;;;;;;1.63;1.52;;;5.50;99.90;;;;;;4974428;28;95896;-73
2023/01/27 05:16:37;;;;;;;1.33;1.30;;;5.40;99.90;;;;;;4973934;28;97685;-73
2023/01/27 05:19:04;;;;;;;4.22;2.05;;;5.40;99.90;;;;;;4958462;28;92642;-73
2023/01/27 05:21:31;;;;;;;2.03;1.83;;;5.30;99.90;;;;;;4974745;28;92521;-73
2023/01/27 05:23:58;;;;;;;2.88;1.70;;;5.20;99.90;;;;;;4975608;28;93239;-73
2023/01/27 05:26:27;;;;;;;3.83;2.17;;;5.30;99.90;;;;;;4958308;28;93087;-73
2023/01/27 05:28:56;;;;;;;4.63;1.88;;;5.30;99.90;;;;;;4973830;28;92424;-73
2023/01/27 05:31:26;;;;;;;4.40;1.75;;;5.30;99.90;;;;;;4976015;28;91687;-73
2023/01/27 05:33:55;;;;;;;2.45;1.70;;;5.30;99.90;;;;;;4975376;28;93302;-73
2023/01/27 05:36:23;;;;;;;2.40;1.92;;;5.20;99.90;;;;;;4974161;28;95779;-73
2023/01/27 05:38:51;;;;;;;2.20;2.00;;;5.20;99.90;;;;;;4973053;28;94856;-73
2023/01/27 05:41:19;;;;;;;3.13;2.35;;;5.20;99.90;;;;;;4975476;28;92388;-74
2023/01/27 05:43:50;;;;;;;2.83;2.15;;;5.20;99.90;;;;;;4975316;28;93165;-73
2023/01/27 05:46:19;;;;;;;2.15;1.80;;;5.20;99.90;;;;;;4958730;28;92908;-73
2023/01/27 05:48:49;;;;;;;2.00;1.80;;;5.20;99.90;;;;;;4973880;28;92636;-73
2023/01/27 05:51:18;;;;;;;2.85;2.15;;;5.20;99.90;;;;;;4975342;28;92532;-73
2023/01/27 05:53:46;;;;;;;4.85;2.20;;;5.20;99.90;;;;;;4957441;28;95583;-73
2023/01/27 05:56:18;;;;;;;2.78;2.30;;;5.20;99.90;;;;;;4974438;28;93462;-73
2023/01/27 05:58:45;;;;;;;2.50;2.30;;;5.20;99.90;;;;;;4975629;28;92444;-73
2023/01/27 06:01:18;;;;;;;2.88;2.33;;;5.20;99.90;;;;;;4973949;28;97894;-73
2023/01/27 06:03:46;;;;;;;2.30;2.05;;;5.20;99.90;;;;;;4988934;28;95569;-73
2023/01/27 06:06:15;;;;;;;3.60;2.35;;;5.20;99.90;;;;;;4957615;28;98040;-73
2023/01/27 06:08:42;;;;;;;4.00;2.85;;;5.20;99.90;;;;;;4974152;28;92416;-73
2023/01/27 06:11:10;;;;;;;2.35;2.00;;;5.20;99.90;;;;;;4973930;28;92502;-73
2023/01/27 06:13:37;;;;;;;2.83;2.08;;;5.20;99.90;;;;;;4975041;28;93460;-73
2023/01/27 06:16:08;;;;;;;4.32;2.20;;;5.20;99.90;;;;;;4993234;28;93000;-73
2023/01/27 06:18:36;;;;;;;3.30;2.67;;;5.10;99.90;;;;;;4978558;28;92430;-73
2023/01/27 06:21:04;;;;;;;2.83;1.95;;;5.20;99.90;;;;;;4976873;28;91762;-73
2023/01/27 06:23:31;;;;;;;4.22;2.17;;;5.20;99.90;;;;;;4977265;28;93412;-73
2023/01/27 06:26:04;;;;;;;7.00;2.83;;;5.20;99.90;;;;;;4978176;28;93251;-73
2023/01/27 06:28:31;;;;;;;6.72;2.42;;;5.20;99.90;;;;;;4977325;28;94738;-74
2023/01/27 06:31:16;;;;;;;2.53;2.30;;;5.20;99.90;;;;;;4976699;28;92449;-73
2023/01/27 06:33:43;;;;;;;3.08;2.20;;;5.20;99.90;;;;;;4976894;28;92984;-74
2023/01/27 06:36:15;;;;;;;4.15;2.67;;;5.20;99.90;;;;;;4976391;28;96070;-73
2023/01/27 06:38:42;;;;;;;2.05;1.73;;;5.30;99.90;;;;;;4977242;28;92383;-74
2023/01/27 06:41:09;;;;;;;3.22;2.00;;;5.20;99.90;;;;;;4976612;28;93885;-74
2023/01/27 06:43:37;;;;;;;2.35;2.15;;;5.10;99.90;;;;;;4978015;28;93561;-74
2023/01/27 06:46:04;;;;;;;4.97;2.55;;;5.10;99.90;;;;;;4960142;28;95904;-74
2023/01/27 06:48:32;;;;;;;5.03;2.60;;;5.20;99.90;;;;;;4960708;28;92340;-74
2023/01/27 06:51:00;;;;;;;3.53;2.38;;;5.10;99.90;;;;;;4959985;28;92515;-74
2023/01/27 06:53:27;;;;;;;4.63;2.60;;;5.10;99.90;;;;;;4976311;28;95956;-74
2023/01/27 06:55:59;;;;;;;5.00;3.03;;;5.10;99.90;;;;;;4977703;28;95306;-74
2023/01/27 06:58:27;;;;;;;3.78;1.98;;;5.20;99.90;;;;;;4976441;28;93206;-74
2023/01/27 07:00:54;;;;;;;3.60;2.30;;;5.20;99.90;;;;;;4976197;28;92567;-74
2023/01/27 07:03:21;;;;;;;2.33;1.90;;;5.20;99.90;;;;;;4976381;28;95355;-74
2023/01/27 07:05:48;;;;;;;2.78;2.22;;;5.20;99.90;;;;;;4976173;28;96066;-73
2023/01/27 07:08:15;;;;;;;2.58;2.28;;;5.10;99.90;;;;;;4977359;28;92466;-73
2023/01/27 07:10:42;;;;;;;3.25;2.95;;;5.20;99.90;;;;;;4976422;28;92482;-72
2023/01/27 07:13:12;;;;;;;4.47;2.78;;;5.20;99.90;;;;;;4975867;28;93188;-72
2023/01/27 07:15:39;;;;;;;4.82;2.65;;;5.20;99.90;;;;;;4977449;28;92557;-73
2023/01/27 07:18:06;;;;;;;4.30;3.13;;;5.20;99.90;;;;;;4974773;28;94924;-73
2023/01/27 07:20:33;;;;;;;4.55;2.58;;;5.20;99.90;;;;;;4959516;28;92685;-73
2023/01/27 07:23:03;;;;;;;4.85;2.60;;;5.20;99.90;;;;;;4959373;28;94417;-73
2023/01/27 07:25:33;;;;;;;3.72;2.40;;;5.10;99.90;;;;;;4975236;28;93094;-73
2023/01/27 07:28:01;;;;;;;3.15;2.45;;;5.20;99.90;;;;;;4975737;28;92416;-73
2023/01/27 07:30:28;;;;;;;3.08;2.35;;;5.10;99.90;;;;;;4976012;28;92515;-73
2023/01/27 07:33:06;;;;;;;3.42;2.70;;;5.20;99.90;;;;;;4977203;28;93674;-73
2023/01/27 07:35:35;;;;;;;4.07;2.50;;;5.20;99.90;;;;;;4975903;28;95493;-74
2023/01/27 07:38:02;;;;;;;4.97;2.75;;;5.20;99.90;;;;;;4977001;28;92500;-74
2023/01/27 07:40:29;;;;;;;4.00;2.53;;;5.20;99.90;;;;;;4975797;28;92513;-73
2023/01/27 07:43:00;;;;;;;5.53;2.67;;;5.20;99.90;;;;;;4958258;28;95504;-73
2023/01/27 07:45:28;;;;;;;6.40;3.13;;;5.20;99.90;;;;;;4975611;28;97596;-73
2023/01/27 07:48:08;;;;;;;3.83;2.78;;;5.20;99.90;;;;;;4977213;28;92524;-73
2023/01/27 07:50:40;;;;;;;3.35;2.92;;;5.20;99.90;;;;;;4977257;28;92443;-73
2023/01/27 07:53:08;;;;;;;6.80;3.22;;;5.20;99.90;;;;;;4975213;28;95704;-74
2023/01/27 07:55:35;;;;;;;5.60;2.85;;;5.30;99.90;;;;;;4991902;28;95565;-74
2023/01/27 07:58:02;;;;;;;9.35;3.03;;;5.30;99.90;;;;;;4975650;28;92904;-74
2023/01/27 08:00:30;;;;;;;4.28;3.60;;;5.30;99.90;;;;;;4977304;28;91717;-74
2023/01/27 08:02:58;;;;;;;8.98;2.95;;;5.30;99.90;;;;;;4959177;28;95495;-74
2023/01/27 08:05:26;;;;;;;4.80;3.03;;;5.30;99.90;;;;;;4976569;28;92526;-74
2023/01/27 08:07:55;;;;;;;4.47;2.88;;;5.40;99.90;;;;;;4958370;28;94863;-74
2023/01/27 08:10:24;;;;;;;5.72;3.00;;;5.40;99.90;;;;;;4975289;28;92504;-74
2023/01/27 08:12:52;;;;;;;3.47;3.15;;;5.40;99.90;;;;;;4976417;28;93321;-74
2023/01/27 08:15:19;;;;;;;3.00;2.65;;;5.40;99.90;;;;;;4976279;28;92882;-74
2023/01/27 08:17:56;;;;;;;3.83;3.20;;;5.40;99.90;;;;;;4976639;28;92418;-74
2023/01/27 08:20:25;;;;;;;4.63;3.28;;;5.50;99.90;;;;;;4986305;28;92722;-74
2023/01/27 08:22:52;;;;;;;5.05;3.47;;;5.50;99.90;;;;;;4978630;28;93308;-74
2023/01/27 08:25:20;;;;;;;3.05;2.38;;;5.50;99.90;;;;;;4962199;28;94151;-73
2023/01/27 08:27:52;;;;;;;7.57;4.38;;;5.50;99.90;;;;;;4978779;28;92552;-73
2023/01/27 08:30:19;;;;;;;8.63;3.80;;;5.50;99.90;;;;;;4996210;28;92349;-74
2023/01/27 08:32:46;;;;;;;8.32;3.78;;;5.60;99.90;;;;;;4994947;28;95365;-74
2023/01/27 08:35:13;;;;;;;6.70;3.60;;;5.60;99.90;;;;;;4978171;28;95386;-74
2023/01/27 08:37:40;;;;;;;5.15;3.55;;;5.60;99.90;;;;;;4945835;28;92635;-74
2023/01/27 08:40:08;;;;;;;6.35;4.65;;;5.60;99.90;;;;;;4996054;28;92470;-74
2023/01/27 08:42:35;;;;;;;6.43;4.40;;;5.60;99.90;;;;;;4996004;28;93836;-74
2023/01/27 08:45:03;;;;;;;9.15;3.60;;;5.70;99.90;;;;;;4961608;28;95809;-74
2023/01/27 08:47:29;;;;;;;6.60;4.15;;;5.70;99.90;;;;;;4996110;28;92488;-74
2023/01/27 08:49:57;;;;;;;4.13;3.72;;;5.70;99.90;;;;;;4978668;28;91696;-74
2023/01/27 08:52:26;;;;;;;5.32;4.28;;;5.80;99.90;;;;;;4995688;28;93235;-73
2023/01/27 08:54:53;;;;;;;5.28;3.67;;;5.80;99.90;;;;;;4995671;28;92856;-73
2023/01/27 08:57:20;;;;;;;8.73;4.10;;;5.80;99.90;;;;;;4994454;28;94756;-73
2023/01/27 08:59:47;;;;;;;4.47;3.97;;;5.80;99.90;;;;;;4994758;28;92880;-74
2023/01/27 09:02:14;;;;;;;5.90;3.70;;;5.80;99.90;;;;;;4945599;28;93263;-73
2023/01/27 09:04:43;;;;;;;4.93;3.40;;;5.90;99.90;;;;;;4994165;28;95840;-73
2023/01/27 09:07:11;;;;;;;3.80;3.08;;;5.90;99.90;;;;;;4977502;28;92427;-73
2023/01/27 09:09:37;;;;;;;6.13;4.00;;;5.90;99.90;;;;;;4961349;28;99618;-73
2023/01/27 09:12:05;;;;;;;8.32;4.07;;;5.90;99.90;;;;;;4977326;28;96191;-73
2023/01/27 09:14:32;;;;;;;8.20;3.80;;;5.90;99.90;;;;;;4961935;28;93219;-73
2023/01/27 09:16:59;;;;;;;5.97;3.50;;;6.00;99.90;;;;;;4994621;28;92462;-74
2023/01/27 09:19:27;;;;;;;4.43;3.80;;;6.00;99.90;;;;;;4977038;28;92371;-73
2023/01/27 09:21:54;;;;;;;5.22;3.53;;;6.00;99.90;;;;;;4976571;28;96429;-73
2023/01/27 09:24:21;;;;;;;6.00;3.85;;;6.10;99.90;;;;;;4993946;28;95407;-73
2023/01/27 09:26:48;;;;;;;8.05;3.60;;;6.10;99.90;;;;;;4961236;28;92649;-74
2023/01/27 09:29:15;;;;;;;7.80;4.28;;;6.10;99.90;;;;;;4995378;28;92425;-74
2023/01/27 09:31:42;;;;;;;4.18;3.53;;;6.30;99.90;;;;;;4994128;28;93343;-73
2023/01/27 09:34:09;;;;;;;4.85;3.33;;;6.30;99.90;;;;;;4995301;28;92872;-73
2023/01/27 09:36:48;;;;;;;4.57;3.15;;;6.40;99.90;;;;;;4977510;28;93114;-73
2023/01/27 09:39:17;;;;;;;4.57;2.67;;;6.50;99.90;;;;;;4995668;28;92039;-74
2023/01/27 09:42:02;;;;;;;5.22;2.78;;;6.40;99.90;;;;;;4977485;28;93096;-74
2023/01/27 09:44:38;;;;;;;5.88;3.22;;;6.30;99.90;;;;;;4995217;28;92965;-74
2023/01/27 09:47:11;;;;;;;3.55;2.92;;;6.20;99.90;;;;;;4977008;28;94858;-74
2023/01/27 09:50:03;;;;;;;4.28;2.22;;;6.20;99.90;;;;;;4979130;28;92726;-73
2023/01/27 09:52:38;;;;;;;4.40;2.92;;;6.20;99.90;;;;;;4980484;28;95760;-73
2023/01/27 09:55:22;;;;;;;3.60;2.83;;;6.10;99.90;;;;;;4982108;28;93128;-74
2023/01/27 09:58:05;;;;;;;4.63;2.65;;;6.10;99.90;;;;;;4980674;28;93403;-74
2023/01/27 10:00:35;;;;;;;3.83;3.20;;;6.10;99.90;;;;;;4998647;28;92430;-74
2023/01/27 10:03:05;;;;;;;3.35;2.97;;;6.10;99.90;;;;;;4998389;28;94393;-74
2023/01/27 10:05:54;;;;;;;4.30;2.63;;;6.20;99.90;;;;;;4978693;28;95386;-74
2023/01/27 10:08:36;;;;;;;3.88;3.13;;;6.20;99.90;;;;;;4998205;28;92372;-74
2023/01/27 10:11:39;;;;;;;4.57;2.92;;;6.10;99.90;;;;;;4998428;28;92483;-74
2023/01/27 10:14:32;;;;;;;4.20;2.53;;;6.10;99.90;;;;;;4997251;28;95696;-74
2023/01/27 10:17:23;;;;;;;3.00;2.70;;;6.10;99.90;;;;;;4996873;28;97859;-74
2023/01/27 10:20:12;;;;;;;3.70;2.30;;;6.10;99.90;;;;;;4963881;28;92752;-74
2023/01/27 10:22:42;;;;;;;4.20;2.35;;;6.10;99.90;;;;;;4998212;28;92364;-74
2023/01/27 10:25:24;;;;;;;2.55;2.35;;;6.00;99.90;;;;;;4997449;28;93219;-73
2023/01/27 10:27:57;;;;;;;2.92;2.30;;;6.00;99.90;;;;;;4998018;28;92746;-73
2023/01/27 10:30:24;;;;;;;2.60;2.40;;;5.90;99.90;;;;;;4998467;28;92410;-74
2023/01/27 10:33:14;;;;;;;3.72;2.25;;;6.00;99.90;;;;;;4998266;28;91707;-73
2023/01/27 10:35:52;;;;;;;2.92;2.33;;;6.00;99.90;;;;;;4980035;28;93263;-74
2023/01/27 10:38:41;;;;;;;3.97;2.30;;;6.00;99.90;;;;;;4980090;28;93008;-73
2023/01/27 10:41:29;;;;;;;2.83;2.63;;;6.00;99.90;;;;;;4978755;28;94850;-74
2023/01/27 10:44:07;;;;;;;2.85;2.60;;;6.10;99.90;;;;;;4997960;28;92314;-74
2023/01/27 10:47:14;;;;;;;3.00;2.60;;;6.10;99.90;;;;;;4979463;28;92526;-73
2023/01/27 10:49:51;;;;;;;2.70;2.50;;;6.20;99.90;;;;;;4997532;28;93022;-73
2023/01/27 10:52:59;;;;;;;2.35;2.15;;;6.20;99.90;;;;;;4998132;28;92497;-74
2023/01/27 10:55:45;;;;;;;2.47;2.30;;;6.30;99.90;;;;;;4997437;28;92558;-73
2023/01/27 10:59:05;;;;;;;2.78;1.92;;;6.30;99.90;;;;;;4997783;28;93480;-74
2023/01/27 11:01:38;;;;;;;2.58;2.30;;;6.30;99.90;;;;;;4908134;28;93047;-73
2023/01/27 11:04:40;;;;;;;3.67;2.10;;;6.40;99.90;;;;;;4979907;28;92494;-74
2023/01/27 11:07:18;;;;;;;1.73;1.63;;;6.40;99.90;;;;;;4970597;28;92628;-74
2023/01/27 11:09:55;;;;;;;1.95;1.85;;;6.40;99.90;;;;;;4994463;28;96758;-74
2023/01/27 11:12:33;;;;;;;2.35;2.15;;;6.50;99.90;;;;;;4997510;28;95674;-73
2023/01/27 11:15:12;;;;;;;2.15;1.95;;;6.50;99.90;;;;;;4997525;28;92442;-74
2023/01/27 11:17:47;;;;;;;1.95;1.85;;;6.50;99.90;;;;;;4997237;28;92332;-74
2023/01/27 11:20:35;;;;;;;1.50;1.40;;;6.50;99.90;;;;;;4997108;28;93302;-73
2023/01/27 11:23:08;;;;;;;1.90;1.77;;;6.60;99.90;;;;;;4997311;28;92966;-74
2023/01/27 11:25:59;;;;;;;1.67;1.57;;;6.70;99.90;;;;;;4978973;28;93159;-73
2023/01/27 11:28:50;;;;;;;1.48;1.38;;;6.70;99.90;;;;;;4980029;28;92764;-74
2023/01/27 11:31:36;;;;;;;1.33;1.23;;;6.80;99.90;;;;;;4978957;28;96222;-74
2023/01/27 11:34:15;;;;;;;1.38;1.38;;;6.80;99.90;;;;;;4997208;28;92673;-73
2023/01/27 11:36:43;;;;;;;1.40;1.30;;;6.90;99.90;;;;;;4977428;28;95728;-74
2023/01/27 11:39:13;;;;;;;1.42;1.20;;;6.90;99.90;;;;;;4979139;28;92477;-74
2023/01/27 11:41:57;;;;;;;1.55;1.45;;;6.90;99.90;;;;;;4978725;28;95831;-73
2023/01/27 11:44:30;;;;;;;2.15;1.20;;;7.00;99.90;;;;;;4962815;28;95856;-74
2023/01/27 11:46:57;;;;;;;1.10;1.10;;;7.10;99.90;;;;;;4979526;28;92489;-74
2023/01/27 11:49:49;;;;;;;1.30;1.20;;;7.10;99.90;;;;;;4979299;28;92684;-74
2023/01/27 11:52:19;;;;;;;2.45;1.35;;;7.10;99.90;;;;;;4996545;28;93338;-73
2023/01/27 11:55:00;;;;;;;3.15;1.77;;;7.20;99.90;;;;;;4978844;28;93290;-74
2023/01/27 11:57:28;;;;;;;1.80;1.70;;;7.20;99.90;;;;;;4979094;28;93007;-73
2023/01/27 12:00:27;;;;;;;2.75;2.55;;;7.20;99.90;;;;;;4979089;28;92504;-74
2023/01/27 12:03:17;;;;;;;2.60;2.40;;;7.20;99.90;;;;;;4973180;28;95540;-74
2023/01/27 12:05:52;;;;;;;2.33;1.70;;;7.10;99.90;;;;;;4996178;28;95458;-74
2023/01/27 12:08:40;;;;;;;1.63;1.52;;;7.10;99.90;;;;;;4962587;28;92671;-74
2023/01/27 12:11:22;;;;;;;2.75;1.70;;;7.10;99.90;;;;;;4996881;28;92591;-74
2023/01/27 12:13:57;;;;;;;2.08;1.15;;;7.00;99.90;;;;;;4978338;28;93193;-74
2023/01/27 12:16:47;;;;;;;1.65;1.55;;;6.90;99.90;;;;;;4979022;28;93064;-74
2023/01/27 12:19:20;;;;;;;1.65;1.50;;;6.80;99.90;;;;;;4996500;28;92345;-74
2023/01/27 12:21:51;;;;;;;2.10;1.95;;;6.80;99.90;;;;;;4978908;28;91687;-74
2023/01/27 12:24:28;;;;;;;2.10;1.90;;;6.80;99.90;;;;;;4996479;28;93425;-73
2023/01/27 12:26:57;;;;;;;1.70;1.60;;;6.90;99.90;;;;;;4996229;28;92998;-74
2023/01/27 12:29:39;;;;;;;1.63;1.52;;;6.80;99.90;;;;;;4995206;28;94746;-74
2023/01/27 12:32:40;;;;;;;1.40;1.30;;;6.90;99.90;;;;;;4996393;28;92431;-74
2023/01/27 12:35:35;;;;;;;1.75;1.40;;;6.80;99.90;;;;;;4978502;28;93274;-74
2023/01/27 12:38:17;;;;;;;1.80;1.70;;;6.80;99.90;;;;;;4992910;28;92494;-74
2023/01/27 12:40:45;;;;;;;1.17;1.10;;;6.70;99.90;;;;;;4996021;28;92464;-74
2023/01/27 12:43:15;;;;;;;1.10;1.10;;;6.70;99.90;;;;;;4962280;28;93218;-74
2023/01/27 12:45:43;;;;;;;1.40;1.30;;;6.70;99.90;;;;;;4977981;28;93434;-74
2023/01/27 12:48:16;;;;;;;4.53;1.60;;;6.70;99.90;;;;;;4994681;28;95599;-73
2023/01/27 12:50:49;;;;;;;2.20;1.52;;;6.70;99.90;;;;;;4995961;28;92372;-74
2023/01/27 12:53:26;;;;;;;3.00;1.50;;;6.70;99.90;;;;;;4978352;28;92546;-74
2023/01/27 12:56:05;;;;;;;1.30;1.20;;;6.70;99.90;;;;;;4976385;28;98514;-74
2023/01/27 12:58:34;;;;;;;1.17;1.15;;;6.70;99.90;;;;;;4977742;28;98406;-74
2023/01/27 13:01:19;;;;;;;1.92;1.67;;;6.70;99.90;;;;;;4977779;28;92537;-74
2023/01/27 13:04:03;;;;;;;1.38;1.27;;;6.80;99.90;;;;;;4977646;28;92517;-74
2023/01/27 13:07:03;;;;;;;1.42;1.33;;;6.80;99.90;;;;;;4977850;28;94566;-74
2023/01/27 13:09:47;;;;;;;1.60;1.50;;;6.90;99.90;;;;;;4978248;28;93444;-74
2023/01/27 13:12:26;;;;;;;1.58;1.48;;;6.90;99.90;;;;;;4995993;28;92343;-74
2023/01/27 13:15:14;;;;;;;1.80;1.70;;;6.90;99.90;;;;;;4995881;28;91720;-74
2023/01/27 13:17:43;;;;;;;1.23;1.23;;;6.80;99.90;;;;;;4977453;28;96252;-74
2023/01/27 13:20:30;;;;;;;5.45;2.00;;;6.80;99.90;;;;;;4977374;28;93042;-74
2023/01/27 13:23:02;;;;;;;1.40;1.30;;;6.80;99.90;;;;;;4994583;28;94851;-73
2023/01/27 13:25:43;;;;;;;2.53;2.03;;;6.70;99.90;;;;;;4994783;28;92327;-73
2023/01/27 13:28:19;;;;;;;1.70;1.60;;;6.60;99.90;;;;;;4995558;28;93221;-74
2023/01/27 13:30:52;;;;;;;2.35;1.98;;;6.50;99.90;;;;;;4995146;28;93363;-73
2023/01/27 13:33:36;;;;;;;1.70;1.57;;;6.50;99.90;;;;;;4995808;28;92699;-74
2023/01/27 13:36:15;;;;;;;2.00;1.90;;;6.50;99.90;;;;;;4977063;28;92568;-74
2023/01/27 13:38:53;;;;;;;1.10;1.10;;;6.50;99.90;;;;;;4995414;28;93623;-73
2023/01/27 13:41:27;;;;;;;1.67;1.58;;;6.40;99.90;;;;;;4977719;28;94212;-73
2023/01/27 13:44:04;;;;;;;1.67;1.33;;;6.30;99.90;;;;;;4995646;28;92831;-73
2023/01/27 13:46:37;;;;;;;1.88;1.77;;;6.40;99.90;;;;;;4995551;28;92397;-74
2023/01/27 13:49:16;;;;;;;2.13;2.03;;;6.40;99.90;;;;;;4976164;28;95643;-73
2023/01/27 13:51:43;;;;;;;2.00;1.90;;;6.50;99.90;;;;;;4994651;28;95321;-73
2023/01/27 13:54:14;;;;;;;1.33;1.30;;;6.40;99.90;;;;;;4961211;28;93814;-72